createdAt,value
2019-06-01T00:01:48.813Z,76.50
2019-06-01T00:04:17.730Z,75.00
2019-06-01T00:06:46.956Z,74.80
2019-06-01T00:09:15.833Z,74.90
2019-06-01T00:11:45.520Z,75.00
2019-06-01T00:14:14.403Z,74.70
2019-06-01T00:16:44.015Z,75.00
2019-06-01T00:19:13.017Z,75.30
2019-06-01T00:21:41.640Z,75.70
2019-06-01T00:24:10.252Z,73.30
2019-06-01T00:26:38.969Z,72.30
2019-06-01T00:29:07.580Z,71.70
2019-06-01T00:31:36.246Z,72.40
2019-06-01T00:34:04.894Z,71.70
2019-06-01T00:36:33.575Z,73.10
2019-06-01T00:39:02.183Z,73.20
2019-06-01T00:41:30.820Z,75.00
2019-06-01T00:43:59.487Z,75.60
2019-06-01T00:46:28.108Z,73.20
2019-06-01T00:48:56.813Z,75.30
2019-06-01T00:51:25.509Z,74.70
2019-06-01T00:53:54.185Z,74.70
2019-06-01T00:56:22.807Z,74.00
2019-06-01T00:58:51.973Z,73.90
2019-06-01T01:01:20.771Z,74.60
2019-06-01T01:03:50.182Z,75.80
2019-06-01T01:06:18.951Z,76.70
2019-06-01T01:08:48.893Z,77.10
2019-06-01T01:11:17.731Z,77.50
2019-06-01T01:13:47.170Z,78.20
2019-06-01T01:16:15.915Z,78.70
2019-06-01T01:18:45.621Z,78.60
2019-06-01T01:21:14.422Z,77.20
2019-06-01T01:23:43.063Z,76.30
2019-06-01T01:26:11.781Z,77.70
2019-06-01T01:28:40.505Z,79.30
2019-06-01T01:31:13.917Z,78.20
2019-06-01T01:33:39.416Z,76.40
2019-06-01T01:36:08.032Z,77.20
2019-06-01T01:38:36.703Z,75.20
2019-06-01T01:41:05.317Z,72.00
2019-06-01T01:43:33.964Z,71.40
2019-06-01T01:46:02.943Z,71.10
2019-06-01T01:48:31.655Z,71.70
2019-06-01T01:51:00.291Z,72.30
2019-06-01T01:53:28.894Z,71.60
2019-06-01T01:55:57.579Z,72.80
2019-06-01T01:58:26.205Z,72.70
2019-06-01T02:00:56.412Z,73.90
2019-06-01T02:03:25.224Z,75.50
2019-06-01T02:05:54.927Z,77.90
2019-06-01T02:08:23.779Z,78.00
2019-06-01T02:10:53.285Z,78.40
2019-06-01T02:13:22.270Z,77.80
2019-06-01T02:15:52.236Z,77.60
2019-06-01T02:18:21.030Z,77.90
2019-06-01T02:20:49.647Z,77.70
2019-06-01T02:23:18.324Z,78.10
2019-06-01T02:25:46.941Z,77.40
2019-06-01T02:28:15.641Z,78.30
2019-06-01T02:30:44.266Z,78.70
2019-06-01T02:33:12.956Z,78.80
2019-06-01T02:35:41.563Z,78.40
2019-06-01T02:38:10.243Z,77.10
2019-06-01T02:40:38.865Z,75.60
2019-06-01T02:43:07.500Z,75.10
2019-06-01T02:45:36.178Z,74.70
2019-06-01T02:48:06.279Z,74.50
2019-06-01T02:50:35.473Z,74.60
2019-06-01T02:53:04.164Z,73.20
2019-06-01T02:55:32.804Z,73.40
2019-06-01T02:58:02.402Z,74.30
2019-06-01T03:00:49.066Z,72.80
2019-06-01T03:03:18.136Z,73.90
2019-06-01T03:05:47.035Z,74.00
2019-06-01T03:08:16.442Z,74.50
2019-06-01T03:10:45.796Z,74.90
2019-06-01T03:13:15.923Z,78.00
2019-06-01T03:15:45.065Z,78.30
2019-06-01T03:18:14.038Z,78.40
2019-06-01T03:20:44.183Z,78.20
2019-06-01T03:23:14.304Z,78.80
2019-06-01T03:25:44.406Z,78.80
2019-06-01T03:28:15.073Z,78.40
2019-06-01T03:30:45.345Z,77.50
2019-06-01T03:33:14.507Z,76.50
2019-06-01T03:35:43.348Z,77.00
2019-06-01T03:38:12.093Z,77.70
2019-06-01T03:40:40.712Z,77.80
2019-06-01T03:43:09.459Z,77.20
2019-06-01T03:45:38.127Z,75.70
2019-06-01T03:48:06.885Z,76.10
2019-06-01T03:50:35.545Z,75.70
2019-06-01T03:53:04.291Z,74.80
2019-06-01T03:55:32.924Z,74.90
2019-06-01T03:58:02.910Z,75.50
2019-06-01T04:00:31.620Z,75.30
2019-06-01T04:03:00.833Z,76.10
2019-06-01T04:05:29.586Z,76.10
2019-06-01T04:07:58.240Z,76.60
2019-06-01T04:10:26.907Z,77.80
2019-06-01T04:12:55.556Z,78.40
2019-06-01T04:15:24.200Z,77.80
2019-06-01T04:17:52.846Z,77.90
2019-06-01T04:20:21.485Z,78.20
2019-06-01T04:22:50.310Z,77.90
2019-06-01T04:25:18.978Z,79.40
2019-06-01T04:27:47.658Z,79.30
2019-06-01T04:30:16.395Z,78.90
2019-06-01T04:32:49.753Z,78.60
2019-06-01T04:35:15.344Z,78.50
2019-06-01T04:37:43.974Z,78.30
2019-06-01T04:40:13.670Z,78.40
2019-06-01T04:42:42.362Z,77.90
2019-06-01T04:45:12.507Z,78.10
2019-06-01T04:47:41.282Z,77.90
2019-06-01T04:50:11.019Z,77.60
2019-06-01T04:52:39.826Z,77.40
2019-06-01T04:55:09.066Z,77.30
2019-06-01T04:57:37.811Z,77.00
2019-06-01T05:00:12.559Z,77.30
2019-06-01T05:02:36.867Z,77.10
2019-06-01T05:05:07.076Z,78.00
2019-06-01T05:07:35.859Z,77.20
2019-06-01T05:10:05.183Z,76.80
2019-06-01T05:12:33.882Z,77.50
2019-06-01T05:15:02.589Z,76.40
2019-06-01T05:17:31.215Z,76.70
2019-06-01T05:19:59.892Z,76.70
2019-06-01T05:22:28.508Z,77.20
2019-06-01T05:24:57.176Z,76.70
2019-06-01T05:27:25.834Z,76.70
2019-06-01T05:29:54.464Z,75.80
2019-06-01T05:32:23.130Z,75.90
2019-06-01T05:34:51.860Z,75.10
2019-06-01T05:37:20.520Z,74.50
2019-06-01T05:39:49.139Z,74.10
2019-06-01T05:42:18.885Z,74.60
2019-06-01T05:44:47.605Z,74.70
2019-06-01T05:47:16.320Z,74.40
2019-06-01T05:49:44.896Z,73.90
2019-06-01T05:52:14.467Z,73.20
2019-06-01T05:54:43.228Z,72.60
2019-06-01T05:57:12.658Z,72.90
2019-06-01T05:59:41.456Z,72.60
2019-06-01T06:02:11.094Z,71.90
2019-06-01T06:04:39.862Z,72.20
2019-06-01T06:07:08.505Z,71.70
2019-06-01T06:09:37.205Z,71.70
2019-06-01T06:12:05.798Z,71.10
2019-06-01T06:14:34.458Z,70.60
2019-06-01T06:17:03.117Z,70.60
2019-06-01T06:19:31.750Z,69.30
2019-06-01T06:22:00.376Z,69.00
2019-06-01T06:24:29.050Z,67.80
2019-06-01T06:26:57.679Z,67.80
2019-06-01T06:29:26.383Z,67.70
2019-06-01T06:31:54.996Z,67.60
2019-06-01T06:34:23.702Z,66.10
2019-06-01T06:36:52.404Z,66.40
2019-06-01T06:39:22.004Z,66.30
2019-06-01T06:41:50.775Z,67.20
2019-06-01T06:44:20.511Z,66.50
2019-06-01T06:46:49.374Z,64.30
2019-06-01T06:49:19.078Z,65.00
2019-06-01T06:51:47.894Z,62.60
2019-06-01T06:54:17.629Z,60.60
2019-06-01T06:56:46.468Z,60.70
2019-06-01T06:59:16.117Z,60.50
2019-06-01T07:01:44.990Z,60.30
2019-06-01T07:04:13.622Z,59.40
2019-06-01T07:06:42.292Z,59.70
2019-06-01T07:09:10.923Z,59.10
2019-06-01T07:11:39.597Z,59.20
2019-06-01T07:14:08.220Z,58.40
2019-06-01T07:16:36.887Z,58.80
2019-06-01T07:19:05.541Z,58.10
2019-06-01T07:21:34.296Z,58.30
2019-06-01T07:24:02.909Z,56.90
2019-06-01T07:26:32.365Z,56.90
2019-06-01T07:29:01.147Z,55.60
2019-06-01T07:31:30.037Z,55.70
2019-06-01T07:33:58.673Z,54.90
2019-06-01T07:36:28.609Z,54.60
2019-06-01T07:38:57.384Z,54.50
2019-06-01T07:41:26.678Z,53.90
2019-06-01T07:43:55.385Z,53.80
2019-06-01T07:46:24.884Z,55.00
2019-06-01T07:48:53.565Z,54.10
2019-06-01T07:51:23.213Z,54.20
2019-06-01T07:53:52.042Z,53.70
2019-06-01T07:56:22.496Z,54.90
2019-06-01T07:58:51.293Z,54.40
2019-06-01T08:01:19.939Z,56.20
2019-06-01T08:03:48.566Z,55.30
2019-06-01T08:06:17.250Z,54.70
2019-06-01T08:08:45.877Z,54.00
2019-06-01T08:11:14.560Z,53.40
2019-06-01T08:13:43.228Z,53.70
2019-06-01T08:16:11.868Z,53.30
2019-06-01T08:18:40.490Z,54.80
2019-06-01T08:21:09.155Z,53.60
2019-06-01T08:23:37.765Z,53.60
2019-06-01T08:26:06.459Z,53.40
2019-06-01T08:28:35.123Z,54.00
2019-06-01T08:31:04.306Z,53.30
2019-06-01T08:33:34.834Z,53.20
2019-06-01T08:36:03.191Z,52.50
2019-06-01T08:38:31.862Z,53.70
2019-06-01T08:41:00.491Z,52.10
2019-06-01T08:43:29.729Z,51.70
2019-06-01T08:45:58.510Z,52.50
2019-06-01T08:48:27.714Z,52.10
2019-06-01T08:50:56.400Z,51.40
2019-06-01T08:53:25.799Z,51.30
2019-06-01T08:55:54.500Z,51.80
2019-06-01T08:58:24.171Z,50.80
2019-06-01T09:00:52.922Z,50.90
2019-06-01T09:03:21.670Z,50.00
2019-06-01T09:05:50.290Z,51.50
2019-06-01T09:08:18.984Z,50.30
2019-06-01T09:10:47.614Z,50.70
2019-06-01T09:13:16.279Z,50.30
2019-06-01T09:15:44.899Z,48.90
2019-06-01T09:18:13.545Z,50.10
2019-06-01T09:20:42.199Z,48.70
2019-06-01T09:23:10.909Z,48.20
2019-06-01T09:25:39.546Z,48.40
2019-06-01T09:28:08.289Z,48.00
2019-06-01T09:30:36.978Z,47.20
2019-06-01T09:33:05.628Z,47.60
2019-06-01T09:35:52.758Z,47.60
2019-06-01T09:38:04.568Z,46.40
2019-06-01T09:40:33.818Z,46.40
2019-06-01T09:43:03.695Z,47.30
2019-06-01T09:45:33.061Z,46.80
2019-06-01T09:48:02.674Z,47.10
2019-06-01T09:50:31.398Z,46.60
2019-06-01T09:52:59.992Z,45.10
2019-06-01T09:55:29.419Z,47.20
2019-06-01T09:57:59.107Z,45.90
2019-06-01T10:00:28.324Z,46.30
2019-06-01T10:02:56.993Z,45.30
2019-06-01T10:05:25.659Z,45.90
2019-06-01T10:07:54.299Z,45.10
2019-06-01T10:10:23.006Z,44.70
2019-06-01T10:12:52.020Z,44.60
2019-06-01T10:15:20.727Z,43.20
2019-06-01T10:17:49.395Z,43.10
2019-06-01T10:20:18.173Z,43.90
2019-06-01T10:22:46.876Z,43.50
2019-06-01T10:25:15.538Z,42.90
2019-06-01T10:27:44.213Z,43.40
2019-06-01T10:30:12.879Z,43.70
2019-06-01T10:32:42.144Z,42.70
2019-06-01T10:35:11.207Z,42.20
2019-06-01T10:37:40.044Z,42.00
2019-06-01T10:40:08.847Z,42.60
2019-06-01T10:42:38.066Z,43.40
2019-06-01T10:45:07.530Z,42.90
2019-06-01T10:47:36.270Z,43.10
2019-06-01T10:50:05.901Z,42.10
2019-06-01T10:52:34.593Z,40.90
2019-06-01T10:55:03.323Z,40.70
2019-06-01T10:57:32.311Z,42.00
2019-06-01T11:00:01.527Z,42.90
2019-06-01T11:02:30.880Z,42.20
2019-06-01T11:04:59.590Z,41.90
2019-06-01T11:07:29.114Z,40.90
2019-06-01T11:09:57.809Z,39.00
2019-06-01T11:12:26.502Z,40.20
2019-06-01T11:14:55.344Z,39.60
2019-06-01T11:17:24.253Z,40.30
2019-06-01T11:19:53.024Z,39.90
2019-06-01T11:22:21.669Z,40.50
2019-06-01T11:24:50.308Z,40.10
2019-06-01T11:27:18.926Z,41.40
2019-06-01T11:29:51.453Z,40.30
2019-06-01T11:32:18.050Z,40.40
2019-06-01T11:34:46.730Z,40.10
2019-06-01T11:37:16.015Z,40.10
2019-06-01T11:39:45.195Z,39.60
2019-06-01T11:42:13.874Z,40.60
2019-06-01T11:44:42.816Z,41.10
2019-06-01T11:47:11.722Z,39.60
2019-06-01T11:49:40.805Z,41.50
2019-06-01T11:52:10.665Z,40.40
2019-06-01T11:54:39.813Z,41.20
2019-06-01T11:57:08.674Z,40.30
2019-06-01T11:59:37.470Z,41.90
2019-06-01T12:02:06.161Z,39.90
2019-06-01T12:04:35.750Z,41.60
2019-06-01T12:07:16.993Z,40.40
2019-06-01T12:09:35.755Z,40.40
2019-06-01T12:12:04.695Z,41.10
2019-06-01T12:14:36.201Z,41.00
2019-06-01T12:17:05.384Z,41.40
2019-06-01T12:19:34.983Z,40.70
2019-06-01T12:22:04.883Z,39.40
2019-06-01T12:24:35.097Z,39.40
2019-06-01T12:27:03.952Z,39.70
2019-06-01T12:29:32.644Z,40.50
2019-06-01T12:32:01.316Z,39.00
2019-06-01T12:34:30.003Z,39.80
2019-06-01T12:36:58.733Z,39.30
2019-06-01T12:39:27.379Z,41.40
2019-06-01T12:41:56.184Z,40.70
2019-06-01T12:44:24.846Z,41.00
2019-06-01T12:46:53.466Z,39.70
2019-06-01T12:49:22.125Z,40.10
2019-06-01T12:51:50.768Z,40.00
2019-06-01T12:54:19.407Z,39.20
2019-06-01T12:56:49.736Z,39.20
2019-06-01T12:59:18.389Z,39.30
2019-06-01T13:01:47.313Z,39.50
2019-06-01T13:04:16.175Z,40.70
2019-06-01T13:06:48.268Z,40.80
2019-06-01T13:09:15.064Z,40.60
2019-06-01T13:11:43.744Z,40.70
2019-06-01T13:14:12.360Z,39.70
2019-06-01T13:16:43.948Z,39.30
2019-06-01T13:19:11.283Z,39.60
2019-06-01T13:21:41.272Z,40.00
2019-06-01T13:24:10.067Z,39.50
2019-06-01T13:26:38.701Z,38.90
2019-06-01T13:29:07.357Z,38.30
2019-06-01T13:31:36.028Z,38.50
2019-06-01T13:34:04.750Z,41.50
2019-06-01T13:36:33.411Z,39.80
2019-06-01T13:39:02.016Z,40.80
2019-06-01T13:41:30.623Z,41.90
2019-06-01T13:43:59.363Z,41.00
2019-06-01T13:46:28.016Z,39.80
2019-06-01T13:48:56.672Z,40.30
2019-06-01T13:51:25.299Z,39.50
2019-06-01T13:53:54.631Z,40.00
2019-06-01T13:56:23.404Z,39.60
2019-06-01T13:58:52.409Z,39.20
2019-06-01T14:01:21.169Z,40.10
2019-06-01T14:03:52.070Z,40.10
2019-06-01T14:06:20.109Z,39.80
2019-06-01T14:08:49.060Z,39.60
2019-06-01T14:11:17.872Z,41.00
2019-06-01T14:13:47.454Z,41.90
2019-06-01T14:16:16.165Z,40.80
2019-06-01T14:18:45.634Z,39.50
2019-06-01T14:21:14.479Z,38.80
2019-06-01T14:23:43.096Z,38.40
2019-06-01T14:26:11.743Z,39.30
2019-06-01T14:28:40.496Z,41.40
2019-06-01T14:31:09.176Z,39.90
2019-06-01T14:33:38.018Z,39.30
2019-06-01T14:36:06.752Z,40.80
2019-06-01T14:38:46.625Z,40.20
2019-06-01T14:41:05.995Z,40.50
2019-06-01T14:43:34.814Z,40.10
2019-06-01T14:46:03.458Z,39.90
2019-06-01T14:48:32.159Z,40.90
2019-06-01T14:51:00.827Z,40.50
2019-06-01T14:53:29.447Z,38.10
2019-06-01T14:55:58.088Z,39.00
2019-06-01T14:58:26.734Z,38.70
2019-06-01T15:00:56.606Z,38.10
2019-06-01T15:03:25.401Z,37.50
2019-06-01T15:05:54.374Z,37.10
2019-06-01T15:08:23.187Z,36.50
2019-06-01T15:10:53.303Z,37.70
2019-06-01T15:13:22.150Z,36.90
2019-06-01T15:15:51.378Z,35.90
2019-06-01T15:18:20.147Z,36.00
2019-06-01T15:20:49.701Z,36.50
2019-06-01T15:23:18.449Z,35.10
2019-06-01T15:25:47.096Z,36.40
2019-06-01T15:28:15.743Z,36.60
2019-06-01T15:30:44.391Z,34.90
2019-06-01T15:33:13.047Z,36.00
2019-06-01T15:35:41.684Z,36.40
2019-06-01T15:38:10.361Z,35.80
2019-06-01T15:40:39.074Z,35.90
2019-06-01T15:43:07.705Z,34.80
2019-06-01T15:45:36.320Z,36.50
2019-06-01T15:48:04.987Z,35.60
2019-06-01T15:50:33.659Z,35.10
2019-06-01T15:53:03.407Z,35.00
2019-06-01T15:55:32.128Z,35.80
2019-06-01T15:58:00.792Z,37.00
2019-06-01T16:00:29.450Z,36.40
2019-06-01T16:02:58.959Z,36.20
2019-06-01T16:05:27.727Z,36.10
2019-06-01T16:07:57.102Z,35.70
2019-06-01T16:10:25.911Z,36.40
2019-06-01T16:12:55.332Z,35.40
2019-06-01T16:15:24.195Z,34.10
2019-06-01T16:17:53.694Z,35.20
2019-06-01T16:20:22.324Z,34.50
2019-06-01T16:22:50.990Z,35.50
2019-06-01T16:25:19.717Z,35.70
2019-06-01T16:27:48.351Z,36.50
2019-06-01T16:30:17.981Z,35.50
2019-06-01T16:32:46.643Z,34.70
2019-06-01T16:35:15.608Z,35.20
2019-06-01T16:37:44.315Z,35.80
2019-06-01T16:40:13.019Z,35.80
2019-06-01T16:42:41.695Z,35.10
2019-06-01T16:45:10.573Z,35.80
2019-06-01T16:47:39.223Z,35.60
2019-06-01T16:50:07.862Z,35.90
2019-06-01T16:52:36.510Z,36.80
2019-06-01T16:55:06.983Z,37.50
2019-06-01T16:57:36.050Z,35.60
2019-06-01T17:00:05.220Z,35.90
2019-06-01T17:02:33.908Z,35.50
2019-06-01T17:05:02.927Z,35.90
2019-06-01T17:07:31.637Z,36.60
2019-06-01T17:10:20.507Z,37.20
2019-06-01T17:12:30.895Z,38.40
2019-06-01T17:15:00.817Z,38.30
2019-06-01T17:17:29.760Z,38.60
2019-06-01T17:19:59.011Z,39.10
2019-06-01T17:22:27.789Z,39.40
2019-06-01T17:24:57.556Z,39.20
2019-06-01T17:27:26.300Z,38.20
2019-06-01T17:29:55.657Z,38.70
2019-06-01T17:32:24.927Z,39.00
2019-06-01T17:34:53.808Z,39.10
2019-06-01T17:37:22.540Z,39.60
2019-06-01T17:39:51.317Z,39.70
2019-06-01T17:42:20.164Z,40.00
2019-06-01T17:44:48.818Z,40.00
2019-06-01T17:47:18.142Z,40.00
2019-06-01T17:50:07.370Z,39.40
2019-06-01T17:52:36.422Z,39.20
2019-06-01T17:55:05.291Z,40.00
2019-06-01T17:57:34.020Z,40.00
2019-06-01T18:00:03.466Z,39.90
2019-06-01T18:02:32.618Z,40.80
2019-06-01T18:05:03.952Z,41.00
2019-06-01T18:07:33.428Z,41.60
2019-06-01T18:10:04.605Z,40.60
2019-06-01T18:12:34.619Z,40.70
2019-06-01T18:15:04.416Z,40.40
2019-06-01T18:17:34.809Z,40.80
2019-06-01T18:20:06.591Z,41.60
2019-06-01T18:22:36.902Z,41.90
2019-06-01T18:25:08.426Z,41.60
2019-06-01T18:27:38.854Z,42.50
2019-06-01T18:30:10.659Z,42.00
2019-06-01T18:32:41.373Z,42.30
2019-06-01T18:35:11.802Z,42.20
2019-06-01T18:37:42.005Z,42.70
2019-06-01T18:40:13.807Z,42.80
2019-06-01T18:42:45.212Z,42.70
2019-06-01T18:45:16.585Z,43.20
2019-06-01T18:47:47.351Z,43.00
2019-06-01T18:50:19.222Z,43.10
2019-06-01T18:52:50.507Z,43.70
2019-06-01T18:55:21.613Z,43.40
2019-06-01T18:57:53.542Z,43.40
2019-06-01T19:00:24.111Z,43.90
2019-06-01T19:02:54.818Z,44.80
2019-06-01T19:05:25.369Z,45.00
2019-06-01T19:07:55.901Z,45.10
2019-06-01T19:10:26.381Z,46.60
2019-06-01T19:12:57.062Z,46.40
2019-06-01T19:15:28.982Z,45.40
2019-06-01T19:17:59.801Z,46.30
2019-06-01T19:20:33.123Z,46.80
2019-06-01T19:23:02.424Z,46.00
2019-06-01T19:25:32.966Z,46.50
2019-06-01T19:28:03.498Z,46.80
2019-06-01T19:30:41.284Z,49.00
2019-06-01T19:33:15.461Z,49.00
2019-06-01T19:35:44.180Z,50.80
2019-06-01T19:38:15.452Z,51.20
2019-06-01T19:40:46.414Z,51.70
2019-06-01T19:43:17.692Z,52.40
2019-06-01T19:45:49.385Z,53.10
2019-06-01T19:48:19.935Z,53.50
2019-06-01T19:50:50.657Z,54.00
2019-06-01T19:53:24.858Z,54.60
2019-06-01T19:55:56.093Z,54.30
2019-06-01T19:58:26.636Z,55.30
2019-06-01T20:00:58.791Z,55.20
2019-06-01T20:03:30.880Z,55.00
2019-06-01T20:06:01.566Z,55.10
2019-06-01T20:08:32.130Z,55.30
2019-06-01T20:11:02.790Z,55.20
2019-06-01T20:13:33.960Z,55.30
2019-06-01T20:16:07.453Z,55.50
2019-06-01T20:18:38.073Z,55.60
2019-06-01T20:21:09.235Z,55.70
2019-06-01T20:23:39.807Z,55.50
2019-06-01T20:26:11.243Z,55.70
2019-06-01T20:28:41.834Z,56.00
2019-06-01T20:31:13.713Z,55.60
2019-06-01T20:33:44.830Z,55.60
2019-06-01T20:36:16.153Z,55.90
2019-06-01T20:38:47.018Z,56.10
2019-06-01T20:41:18.659Z,56.10
2019-06-01T20:43:49.396Z,55.90
2019-06-01T20:46:20.887Z,55.90
2019-06-01T20:48:51.763Z,56.20
2019-06-01T20:51:26.857Z,56.10
2019-06-01T20:53:54.351Z,56.40
2019-06-01T20:56:25.412Z,56.40
2019-06-01T20:58:56.109Z,57.10
2019-06-01T21:01:26.654Z,56.60
2019-06-01T21:03:57.124Z,56.40
2019-06-01T21:06:27.716Z,57.50
2019-06-01T21:08:58.610Z,57.60
2019-06-01T21:11:29.249Z,58.30
2019-06-01T21:13:59.799Z,58.80
2019-06-01T21:16:30.360Z,59.30
2019-06-01T21:19:00.855Z,60.20
2019-06-01T21:21:31.352Z,59.70
2019-06-01T21:24:01.520Z,60.20
2019-06-01T21:26:31.886Z,60.60
2019-06-01T21:29:02.127Z,60.80
2019-06-01T21:31:32.078Z,60.90
2019-06-01T21:34:02.303Z,61.60
2019-06-01T21:36:32.814Z,61.70
2019-06-01T21:39:02.853Z,61.30
2019-06-01T21:41:32.856Z,60.10
2019-06-01T21:44:02.999Z,60.70
2019-06-01T21:46:32.078Z,61.10
2019-06-01T21:49:01.611Z,61.00
2019-06-01T21:51:31.026Z,60.30
2019-06-01T21:53:59.859Z,60.50
2019-06-01T21:56:29.545Z,61.50
2019-06-01T21:58:58.425Z,61.80
2019-06-01T22:01:27.438Z,61.30
2019-06-01T22:03:56.184Z,60.40
2019-06-01T22:06:25.665Z,61.30
2019-06-01T22:08:54.607Z,62.30
2019-06-01T22:11:23.722Z,62.70
2019-06-01T22:13:52.358Z,63.10
2019-06-01T22:16:21.699Z,63.60
2019-06-01T22:18:50.426Z,63.40
2019-06-01T22:21:19.697Z,64.30
2019-06-01T22:23:48.509Z,64.40
2019-06-01T22:26:17.889Z,64.90
2019-06-01T22:28:46.666Z,65.10
2019-06-01T22:31:15.397Z,64.40
2019-06-01T22:33:44.138Z,64.90
2019-06-01T22:36:12.813Z,65.00
2019-06-01T22:38:41.436Z,65.00
2019-06-01T22:41:10.069Z,64.40
2019-06-01T22:43:46.156Z,64.90
2019-06-01T22:46:08.989Z,66.00
2019-06-01T22:48:37.714Z,65.60
2019-06-01T22:51:06.359Z,65.50
2019-06-01T22:53:35.067Z,64.40
2019-06-01T22:56:03.667Z,63.90
2019-06-01T22:58:32.325Z,63.90
2019-06-01T23:01:00.945Z,64.20
2019-06-01T23:03:30.226Z,66.50
2019-06-01T23:05:59.051Z,67.00
2019-06-01T23:08:27.710Z,66.60
2019-06-01T23:10:56.321Z,64.80
2019-06-01T23:13:26.134Z,64.60
2019-06-01T23:15:54.881Z,65.10
2019-06-01T23:18:23.650Z,65.50
2019-06-01T23:20:52.279Z,65.60
2019-06-01T23:23:22.258Z,65.40
2019-06-01T23:25:51.104Z,66.10
2019-06-01T23:28:19.693Z,66.80
2019-06-01T23:30:48.354Z,66.20
2019-06-01T23:33:16.937Z,67.10
2019-06-01T23:35:45.611Z,68.10
2019-06-01T23:38:14.203Z,67.60
2019-06-01T23:40:42.875Z,67.30
2019-06-01T23:43:11.475Z,66.80
2019-06-01T23:45:40.139Z,67.00
2019-06-01T23:48:08.737Z,66.00
2019-06-01T23:50:37.380Z,66.00
2019-06-01T23:53:13.597Z,66.60
2019-06-01T23:55:36.441Z,66.40
2019-06-01T23:58:05.032Z,65.90
